Time;durP1;ratioP1;P1;durP2;ratioP2;P2;SDS_P1;SDS_P2;PMS_P1;PMS_P2;Temp;Humidity;BMP_temperature;BMP_pressure;BME280_temperature;BME280_humidity;BME280_pressure;Samples;Min_cycle;Max_cycle;Signal;HPM_P1;HPM_P2
2022/06/24 00:02:26;;;;;;;5.07;4.57;;;;;;;15.41;87.69;99403.59;5026870;28;20310;-61
2022/06/24 00:04:59;;;;;;;2.97;2.53;;;;;;;15.32;87.62;99393.50;5039500;28;20277;-61
2022/06/24 00:07:30;;;;;;;1.53;1.43;;;;;;;15.35;87.38;99398.66;5039767;28;20311;-61
2022/06/24 00:10:13;;;;;;;1.13;1.03;;;;;;;15.45;87.88;99409.53;5039045;28;20292;-61
2022/06/24 00:12:46;;;;;;;1.10;1.00;;;;;;;15.43;87.19;99393.84;5027588;28;20272;-60
2022/06/24 00:15:24;;;;;;;0.93;0.90;;;;;;;15.46;86.67;99398.94;5029482;28;20281;-60
2022/06/24 00:17:55;;;;;;;1.27;1.13;;;;;;;15.43;86.50;99401.75;5027580;28;20351;-61
2022/06/24 00:20:26;;;;;;;1.43;1.07;;;;;;;15.42;86.40;99405.28;5028018;28;20654;-61
2022/06/24 00:22:56;;;;;;;1.20;1.10;;;;;;;15.44;86.62;99408.69;5027478;28;20449;-61
2022/06/24 00:25:28;;;;;;;1.30;1.20;;;;;;;15.40;86.92;99401.91;5028565;28;20284;-60
2022/06/24 00:28:04;;;;;;;1.20;1.10;;;;;;;15.41;86.86;99398.31;5029235;28;20288;-61
2022/06/24 00:30:39;;;;;;;1.30;1.20;;;;;;;15.35;87.15;99377.59;5028807;28;20334;-59
2022/06/24 00:33:12;;;;;;;2.13;1.30;;;;;;;15.37;87.49;99377.50;5028396;28;20281;-59
2022/06/24 00:35:44;;;;;;;1.50;1.40;;;;;;;15.39;87.46;99379.13;5029415;28;20348;-59
2022/06/24 00:38:25;;;;;;;6.80;2.00;;;;;;;15.59;87.84;99400.97;5029067;28;20289;-59
2022/06/24 00:41:01;;;;;;;5.13;1.70;;;;;;;15.41;87.20;99403.59;5029194;28;20272;-60
2022/06/24 00:43:35;;;;;;;2.17;1.97;;;;;;;15.09;87.27;99408.66;5035539;28;20311;-60
2022/06/24 00:46:12;;;;;;;3.23;2.00;;;;;;;15.07;88.02;99402.59;5039026;28;20323;-61
2022/06/24 00:48:48;;;;;;;3.57;1.90;;;;;;;14.94;88.32;99403.28;5037423;28;20299;-60
2022/06/24 00:51:20;;;;;;;2.47;2.00;;;;;;;14.86;88.66;99401.03;5038788;28;20330;-60
2022/06/24 00:53:52;;;;;;;2.70;1.90;;;;;;;14.59;88.85;99393.50;5035577;28;20324;-60
2022/06/24 00:56:27;;;;;;;3.40;2.00;;;;;;;14.39;89.54;99396.19;5023021;28;20296;-61
2022/06/24 00:59:00;;;;;;;2.57;1.80;;;;;;;14.33;90.55;99402.56;5038647;28;20296;-60
2022/06/24 01:01:32;;;;;;;2.80;1.80;;;;;;;14.20;90.60;99386.53;5038526;28;20330;-60
2022/06/24 01:04:07;;;;;;;3.07;2.17;;;;;;;13.97;90.87;99373.53;5038233;28;20320;-60
2022/06/24 01:06:39;;;;;;;2.50;1.97;;;;;;;14.12;91.95;99382.50;5038477;28;20296;-60
2022/06/24 01:09:10;;;;;;;3.10;1.63;;;;;;;14.13;91.89;99377.22;5037433;28;20296;-61
2022/06/24 01:11:43;;;;;;;7.53;1.80;;;;;;;14.15;92.11;99375.38;5031016;28;20296;-61
2022/06/24 01:14:14;;;;;;;4.40;1.77;;;;;;;14.11;92.31;99365.91;5027249;28;20291;-60
2022/06/24 01:16:46;;;;;;;3.23;1.70;;;;;;;13.85;92.75;99297.94;5024310;28;20579;-61
2022/06/24 01:19:16;;;;;;;2.13;1.93;;;;;;;14.34;92.61;99356.13;5026650;28;20700;-60
2022/06/24 01:21:51;;;;;;;1.97;1.63;;;;;;;14.27;92.83;99344.19;5028891;28;20292;-61
2022/06/24 01:24:24;;;;;;;3.57;2.10;;;;;;;14.43;92.98;99372.31;5035152;28;20294;-60
2022/06/24 01:26:57;;;;;;;2.80;2.07;;;;;;;14.35;92.44;99368.31;5041863;28;20315;-61
2022/06/24 01:29:28;;;;;;;4.13;1.90;;;;;;;14.28;93.02;99372.16;5041800;28;20306;-60
2022/06/24 01:31:59;;;;;;;3.53;1.90;;;;;;;14.10;92.62;99366.81;5040798;28;20293;-60
2022/06/24 01:34:29;;;;;;;3.80;1.70;;;;;;;13.98;93.22;99364.75;5042478;28;20284;-60
2022/06/24 01:37:02;;;;;;;2.13;1.50;;;;;;;13.93;93.76;99362.34;5041423;28;20294;-61
2022/06/24 01:39:33;;;;;;;2.63;1.70;;;;;;;13.40;93.39;99304.31;5041160;28;20300;-61
2022/06/24 01:42:03;;;;;;;3.80;2.20;;;;;;;13.52;93.04;99358.88;5040968;28;20292;-61
2022/06/24 01:44:34;;;;;;;5.10;2.22;;;;;;;13.35;93.64;99352.59;5040828;28;20276;-61
2022/06/24 01:47:06;;;;;;;4.00;2.50;;;;;;;13.20;93.89;99355.81;5042996;28;20111;-61
2022/06/24 01:49:36;;;;;;;5.07;2.53;;;;;;;12.97;93.57;99346.28;5042074;28;20065;-62
2022/06/24 01:52:09;;;;;;;9.93;2.50;;;;;;;12.85;94.41;99350.25;5041517;28;20057;-62
2022/06/24 01:54:39;;;;;;;13.38;2.10;;;;;;;12.75;94.70;99354.16;5043048;28;20287;-62
2022/06/24 01:57:10;;;;;;;2.50;1.80;;;;;;;12.64;94.81;99351.09;5043313;28;20053;-61
2022/06/24 01:59:41;;;;;;;3.00;2.33;;;;;;;12.59;95.20;99338.19;5043509;28;20053;-61
2022/06/24 02:02:11;;;;;;;9.20;4.70;;;;;;;12.62;95.20;99337.22;5042245;28;20049;-61
2022/06/24 02:04:43;;;;;;;11.35;5.22;;;;;;;12.60;95.17;99336.41;5042813;28;20077;-61
2022/06/24 02:07:15;;;;;;;10.07;5.72;;;;;;;12.57;95.17;99328.69;5044063;28;20052;-62
2022/06/24 02:15:29;;;;;;;7.72;4.65;;;;;;;12.41;94.97;99325.81;5043349;28;20049;-61
2022/06/24 02:17:59;;;;;;;8.52;4.18;;;;;;;12.41;95.14;99310.94;5043320;28;20061;-61
2022/06/24 02:20:30;;;;;;;8.02;4.03;;;;;;;12.41;95.13;99303.06;5041554;28;20235;-61
2022/06/24 02:23:02;;;;;;;12.18;4.20;;;;;;;12.43;95.31;99303.88;5042644;28;20064;-61
2022/06/24 02:25:33;;;;;;;8.30;4.47;;;;;;;12.48;95.30;99288.81;5042137;28;20045;-61
2022/06/24 02:28:03;;;;;;;6.88;4.38;;;;;;;12.46;95.15;99289.81;5043329;28;20591;-61
2022/06/24 02:30:34;;;;;;;5.47;3.85;;;;;;;12.37;94.95;99301.47;5041601;28;20237;-61
2022/06/24 02:33:05;;;;;;;6.97;3.70;;;;;;;12.33;95.19;99292.06;5043339;28;20178;-61
2022/06/24 02:35:36;;;;;;;12.25;4.80;;;;;;;12.36;95.18;99281.44;5043254;28;20404;-62
2022/06/24 02:38:09;;;;;;;14.50;5.07;;;;;;;12.23;95.44;99257.50;5042986;28;20287;-61
2022/06/24 02:40:48;;;;;;;8.75;4.63;;;;;;;12.39;95.44;99278.69;5042350;28;20061;-61
2022/06/24 02:43:19;;;;;;;;;;;;;;;12.36;95.03;99262.25;5043342;28;20045;-61
2022/06/24 02:45:51;;;;;;;8.52;2.95;;;;;;;12.30;95.09;99258.09;5043022;28;19932;-60
2022/06/24 02:48:23;;;;;;;9.30;2.20;;;;;;;12.29;95.00;99256.41;5042840;28;20052;-61
2022/06/24 02:50:56;;;;;;;11.30;2.55;;;;;;;12.05;95.12;99226.78;5041736;28;20086;-61
2022/06/24 02:53:30;;;;;;;3.70;2.00;;;;;;;12.03;95.51;99234.72;5042988;28;20076;-61
2022/06/24 02:56:04;;;;;;;4.28;1.92;;;;;;;12.27;95.44;99263.47;5042998;28;20068;-61
2022/06/24 02:58:36;;;;;;;9.93;2.13;;;;;;;12.14;94.96;99249.16;5042712;28;20114;-61
2022/06/24 03:01:06;;;;;;;10.80;1.80;;;;;;;12.00;94.70;99249.69;5042840;28;20049;-61
2022/06/24 03:03:37;;;;;;;9.27;1.90;;;;;;;11.94;95.43;99232.44;5042761;28;20092;-61
2022/06/24 03:06:09;;;;;;;8.98;2.50;;;;;;;11.92;95.44;99218.56;5042443;28;20053;-61
2022/06/24 03:08:43;;;;;;;7.28;2.47;;;;;;;11.93;95.72;99222.03;5042370;28;20053;-61
2022/06/24 03:11:14;;;;;;;7.82;2.40;;;;;;;11.90;95.43;99217.75;5041128;28;20531;-60
2022/06/24 03:13:45;;;;;;;6.68;2.30;;;;;;;11.94;95.71;99224.59;5043989;28;20054;-61
2022/06/24 03:16:16;;;;;;;26.27;2.83;;;;;;;11.94;95.95;99227.22;5047066;28;20056;-61
2022/06/24 03:18:46;;;;;;;14.52;2.72;;;;;;;11.87;95.88;99226.56;5046326;28;20065;-61
2022/06/24 03:21:17;;;;;;;24.23;3.42;;;;;;;11.88;96.13;99227.44;5045827;28;20064;-60
2022/06/24 03:23:49;;;;;;;5.47;2.80;;;;;;;11.88;96.36;99216.97;5045797;28;20053;-60
2022/06/24 03:26:19;;;;;;;15.80;3.28;;;;;;;11.89;96.19;99210.81;5046060;28;20090;-61
2022/06/24 03:28:50;;;;;;;27.88;3.75;;;;;;;11.90;96.04;99215.13;5046075;28;20083;-61
2022/06/24 03:31:21;;;;;;;20.52;2.90;;;;;;;11.86;96.16;99216.16;5045498;28;20049;-60
2022/06/24 03:33:53;;;;;;;13.65;4.65;;;;;;;11.73;96.03;99204.44;5045847;28;20065;-60
2022/06/24 03:36:24;;;;;;;8.05;4.28;;;;;;;11.90;96.92;99217.75;5044968;28;20060;-60
2022/06/24 03:38:57;;;;;;;24.33;3.63;;;;;;;11.90;96.60;99220.38;5046053;28;20104;-60
2022/06/24 03:41:27;;;;;;;41.20;3.70;;;;;;;11.87;96.49;99212.66;5046039;28;20073;-61
2022/06/24 03:43:58;;;;;;;40.40;3.33;;;;;;;11.77;96.34;99206.88;5045708;28;20053;-61
2022/06/24 03:46:29;;;;;;;47.17;3.92;;;;;;;11.68;96.38;99216.84;5043951;28;20300;-61
2022/06/24 03:49:00;;;;;;;35.88;3.85;;;;;;;11.63;96.60;99210.03;5045566;28;20057;-60
2022/06/24 03:51:30;;;;;;;46.90;3.78;;;;;;;11.56;96.65;99203.31;5046161;28;20099;-60
2022/06/24 03:54:02;;;;;;;41.55;3.40;;;;;;;11.57;97.02;99207.63;5045842;28;20053;-60
2022/06/24 03:56:33;;;;;;;17.08;4.45;;;;;;;11.58;97.25;99201.50;5045957;28;20344;-60
2022/06/24 03:59:04;;;;;;;18.50;3.50;;;;;;;11.58;97.18;99180.56;5046207;28;20057;-60
2022/06/24 04:01:35;;;;;;;27.63;4.22;;;;;;;11.52;97.21;99165.09;5045993;28;20328;-60
2022/06/24 04:04:05;;;;;;;25.13;5.25;;;;;;;11.44;97.43;99162.75;5031521;28;20284;-61
2022/06/24 04:06:36;;;;;;;24.63;4.30;;;;;;;11.49;97.55;99167.81;5025885;28;20176;-60
2022/06/24 04:09:08;;;;;;;22.63;4.13;;;;;;;11.52;97.93;99165.09;5025751;28;20065;-60
2022/06/24 04:11:39;;;;;;;19.33;4.00;;;;;;;11.54;98.06;99162.44;5026081;28;20104;-60
2022/06/24 04:14:10;;;;;;;11.32;3.50;;;;;;;11.54;97.97;99152.81;5025581;28;20052;-59
2022/06/24 04:16:40;;;;;;;17.38;3.60;;;;;;;11.55;97.84;99136.19;5025940;28;20080;-60
2022/06/24 04:19:11;;;;;;;12.45;3.85;;;;;;;11.52;97.96;99123.22;5024977;28;20045;-60
2022/06/24 04:21:42;;;;;;;18.30;3.90;;;;;;;11.51;98.06;99116.31;5025406;28;20046;-60
2022/06/24 04:24:14;;;;;;;33.63;4.38;;;;;;;11.43;97.68;99100.03;5024286;28;20238;-59
2022/06/24 04:26:44;;;;;;;17.17;5.30;;;;;;;11.37;97.49;99118.59;5024329;28;20452;-59
2022/06/24 04:29:15;;;;;;;23.35;4.45;;;;;;;11.31;97.76;99113.59;5023070;28;20068;-59
2022/06/24 04:31:46;;;;;;;45.70;11.23;;;;;;;11.27;97.97;99112.00;5023628;28;20054;-59
2022/06/24 04:34:16;;;;;;;49.63;16.48;;;;;;;11.17;97.96;99111.50;5025197;28;20415;-59
2022/06/24 04:36:47;;;;;;;44.45;8.90;;;;;;;11.13;98.08;99105.53;5025095;28;20053;-59
2022/06/24 04:39:19;;;;;;;16.90;8.27;;;;;;;11.13;98.60;99102.03;5025679;28;20053;-59
2022/06/24 04:41:50;;;;;;;25.30;4.90;;;;;;;11.08;97.92;99102.22;5025063;28;20057;-59
2022/06/24 04:44:21;;;;;;;12.68;3.92;;;;;;;11.00;98.02;99093.81;5024046;28;20260;-59
2022/06/24 04:46:52;;;;;;;47.72;5.43;;;;;;;10.96;97.92;99087.00;5022593;28;20057;-59
2022/06/24 04:49:23;;;;;;;15.80;4.18;;;;;;;10.95;98.22;99080.91;5022351;28;20058;-59
2022/06/24 04:51:54;;;;;;;12.70;3.92;;;;;;;10.94;98.30;99078.38;5024529;28;20066;-59
2022/06/24 04:54:26;;;;;;;13.02;4.15;;;;;;;10.98;98.29;99072.09;5023849;28;20100;-60
2022/06/24 04:56:57;;;;;;;8.95;3.88;;;;;;;10.96;98.07;99071.34;5023790;28;20115;-60
2022/06/24 04:59:28;;;;;;;7.07;3.63;;;;;;;10.98;98.01;99069.47;5024019;28;20833;-60
2022/06/24 05:01:58;;;;;;;8.98;3.65;;;;;;;10.94;97.57;99057.47;5025685;28;20069;-60
2022/06/24 05:04:36;;;;;;;6.40;3.72;;;;;;;10.89;97.56;99048.94;5044385;28;20057;-60
2022/06/24 05:07:07;;;;;;;8.02;3.50;;;;;;;10.82;97.83;99031.78;5044967;28;20047;-59
2022/06/24 05:09:39;;;;;;;7.05;3.72;;;;;;;10.96;98.13;99045.19;5044609;28;20350;-60
2022/06/24 05:12:10;;;;;;;8.43;3.35;;;;;;;10.93;97.46;99040.06;5044022;28;20442;-60
2022/06/24 05:14:41;;;;;;;5.80;3.20;;;;;;;11.02;97.98;99055.41;5044634;28;20060;-59
2022/06/24 05:17:17;;;;;;;5.35;3.33;;;;;;;11.04;97.69;99047.50;5040802;28;20049;-59
2022/06/24 05:19:47;;;;;;;6.55;3.30;;;;;;;11.02;97.07;99039.72;5042263;28;20370;-59
2022/06/24 05:22:18;;;;;;;5.75;3.35;;;;;;;10.91;96.65;99036.69;5042743;28;20056;-60
2022/06/24 05:24:50;;;;;;;10.23;3.78;;;;;;;10.87;96.67;99027.22;5043729;28;20141;-60
2022/06/24 05:27:21;;;;;;;9.80;4.55;;;;;;;10.86;97.17;99020.28;5044308;28;20084;-60
2022/06/24 05:29:51;;;;;;;11.68;5.22;;;;;;;10.91;97.12;99031.44;5043780;28;20386;-60
2022/06/24 05:32:22;;;;;;;5.47;3.63;;;;;;;10.87;96.96;99040.31;5044588;28;20229;-60
2022/06/24 05:34:52;;;;;;;7.82;3.67;;;;;;;10.79;96.82;99028.38;5044048;28;20087;-60
2022/06/24 05:37:23;;;;;;;9.20;3.25;;;;;;;10.92;97.20;99033.97;5043177;28;20037;-60
2022/06/24 05:39:55;;;;;;;6.15;2.80;;;;;;;10.95;96.65;99033.88;5044692;28;20045;-60
2022/06/24 05:42:26;;;;;;;2.97;2.10;;;;;;;10.95;96.42;99033.00;5043898;28;20377;-60
2022/06/24 05:44:57;;;;;;;5.45;2.10;;;;;;;10.90;96.38;99034.94;5044039;28;20045;-59
2022/06/24 05:47:27;;;;;;;4.22;1.90;;;;;;;10.77;96.00;99024.94;5043678;28;20053;-60
2022/06/24 05:49:58;;;;;;;4.47;2.50;;;;;;;10.69;96.19;99021.78;5042141;28;20053;-60
2022/06/24 05:55:18;;;;;;;3.00;1.50;;;;;;;10.62;96.60;99009.84;5043942;28;20056;-60
2022/06/24 05:57:49;;;;;;;2.20;1.67;;;;;;;10.55;96.75;99005.75;5043414;28;20279;-60
2022/06/24 06:00:20;;;;;;;5.75;1.98;;;;;;;10.32;97.20;98965.66;5043623;28;20049;-60
2022/06/24 06:02:50;;;;;;;2.53;1.85;;;;;;;10.45;97.28;98975.66;5043667;28;20061;-61
2022/06/24 06:05:21;;;;;;;3.88;1.90;;;;;;;10.39;97.79;98975.88;5043600;28;20335;-60
2022/06/24 06:07:52;;;;;;;10.50;2.10;;;;;;;10.32;97.78;98962.19;5044485;28;20044;-61
2022/06/24 06:10:24;;;;;;;4.32;2.05;;;;;;;10.24;98.00;98953.75;5043534;28;20103;-61
2022/06/24 06:12:54;;;;;;;3.90;2.00;;;;;;;10.30;98.31;98941.34;5043537;28;20060;-61
2022/06/24 06:15:25;;;;;;;3.63;1.77;;;;;;;10.28;98.15;98947.53;5042099;28;20103;-59
2022/06/24 06:17:56;;;;;;;3.53;2.00;;;;;;;10.25;98.20;98943.25;5042494;28;20060;-58
2022/06/24 06:20:26;;;;;;;4.03;2.38;;;;;;;10.20;98.22;98937.34;5043114;28;20053;-59
2022/06/24 06:22:57;;;;;;;4.53;2.20;;;;;;;10.22;98.35;98938.16;5043260;28;20095;-61
2022/06/24 06:25:29;;;;;;;3.10;2.10;;;;;;;10.18;98.35;98920.88;5043146;28;20048;-61
2022/06/24 06:28:01;;;;;;;4.97;2.03;;;;;;;10.14;98.35;98919.31;5041379;28;20049;-61
2022/06/24 06:30:32;;;;;;;3.75;2.15;;;;;;;10.07;98.36;98912.59;5042630;28;20116;-59
2022/06/24 06:33:03;;;;;;;3.20;1.98;;;;;;;10.08;98.80;98919.50;5043046;28;20049;-59
2022/06/24 06:35:33;;;;;;;2.55;2.08;;;;;;;10.12;99.15;98915.88;5042934;28;20080;-59
2022/06/24 06:38:04;;;;;;;5.20;2.10;;;;;;;10.17;99.05;98927.00;5042626;28;20068;-60
2022/06/24 06:40:38;;;;;;;7.80;1.95;;;;;;;10.17;99.11;98924.41;5043225;28;20116;-59
2022/06/24 06:43:09;;;;;;;1.92;1.40;;;;;;;10.09;98.33;98918.63;5042610;28;20050;-61
2022/06/24 06:45:40;;;;;;;1.77;1.42;;;;;;;10.03;98.68;98905.78;5041716;28;20060;-60
2022/06/24 06:48:11;;;;;;;5.45;1.50;;;;;;;10.03;99.06;98911.00;5041644;28;20057;-60
2022/06/24 06:50:41;;;;;;;1.55;1.20;;;;;;;10.00;98.76;98911.09;5041760;28;20104;-59
2022/06/24 06:53:12;;;;;;;3.13;1.40;;;;;;;9.93;98.73;98900.03;5041648;28;20586;-60
2022/06/24 06:55:44;;;;;;;5.68;1.60;;;;;;;9.88;98.73;98892.38;5041883;28;20057;-60
2022/06/24 06:58:17;;;;;;;1.77;1.27;;;;;;;9.85;98.64;98892.47;5042744;28;20265;-60
2022/06/24 07:00:48;;;;;;;4.22;1.25;;;;;;;9.77;98.75;98878.00;5041479;28;20088;-60
2022/06/24 07:03:18;;;;;;;1.55;0.93;;;;;;;9.76;98.88;98882.38;5041701;28;20057;-59
2022/06/24 07:05:49;;;;;;;3.63;1.15;;;;;;;9.72;98.81;98862.53;5042840;28;20064;-60
2022/06/24 07:08:20;;;;;;;2.97;1.10;;;;;;;9.71;99.12;98847.78;5042513;28;20054;-59
2022/06/24 07:10:52;;;;;;;1.42;1.15;;;;;;;9.74;98.99;98842.44;5042799;28;20060;-60
2022/06/24 07:13:22;;;;;;;2.25;1.33;;;;;;;9.75;99.14;98825.88;5042900;28;20060;-60
2022/06/24 07:15:53;;;;;;;1.90;1.30;;;;;;;9.70;99.08;98813.00;5041713;28;20095;-60
2022/06/24 07:18:24;;;;;;;1.98;1.05;;;;;;;9.63;99.37;98797.63;5042053;28;20156;-60
2022/06/24 07:20:54;;;;;;;1.30;1.20;;;;;;;9.57;99.35;98792.66;5040938;28;20053;-60
2022/06/24 07:23:25;;;;;;;1.63;1.30;;;;;;;9.59;99.74;98780.41;5040421;28;20073;-60
2022/06/24 07:25:59;;;;;;;3.00;1.35;;;;;;;9.61;99.86;98768.16;5042462;28;20049;-59
2022/06/24 07:28:30;;;;;;;4.78;1.00;;;;;;;9.62;99.75;98754.22;5042890;28;20226;-59
2022/06/24 07:31:00;;;;;;;1.05;0.95;;;;;;;9.62;99.82;98749.00;5042657;28;20060;-59
2022/06/24 07:33:31;;;;;;;1.20;0.82;;;;;;;9.68;100.00;98743.53;5042493;28;20355;-58
2022/06/24 07:36:02;;;;;;;1.00;0.90;;;;;;;9.62;100.00;98749.00;5041128;28;20088;-59
2022/06/24 07:38:32;;;;;;;1.63;1.10;;;;;;;9.66;99.37;98756.66;5039623;28;20278;-59
2022/06/24 07:41:05;;;;;;;1.77;1.30;;;;;;;9.62;99.24;98769.88;5038549;28;20057;-58
2022/06/24 07:43:37;;;;;;;4.45;2.00;;;;;;;9.53;99.59;98749.31;5039797;28;20049;-59
2022/06/24 07:46:08;;;;;;;7.80;2.28;;;;;;;9.55;99.55;98747.53;5039970;28;20360;-59
2022/06/24 07:48:39;;;;;;;1.98;1.27;;;;;;;9.52;99.70;98747.63;5041155;28;20067;-59
2022/06/24 07:51:12;;;;;;;1.73;1.10;;;;;;;9.52;99.83;98758.06;5040694;28;20048;-59
2022/06/24 07:53:43;;;;;;;1.88;1.20;;;;;;;9.36;99.61;98729.94;5040126;28;20077;-59
2022/06/24 07:59:08;;;;;;;1.58;0.77;;;;;;;9.43;99.80;98749.66;5040646;28;20363;-59
2022/06/24 08:01:39;;;;;;;1.27;0.80;;;;;;;9.40;99.77;98743.72;5045374;28;20061;-59
2022/06/24 08:04:11;;;;;;;0.70;0.70;;;;;;;9.37;99.70;98728.19;5043990;28;20068;-59
2022/06/24 08:06:46;;;;;;;0.60;0.60;;;;;;;9.34;99.92;98723.94;5045952;28;21026;-59
2022/06/24 08:09:16;;;;;;;0.60;0.60;;;;;;;9.31;99.87;98728.38;5044989;28;20060;-60
2022/06/24 08:11:49;;;;;;;2.00;0.60;;;;;;;9.33;100.00;98727.44;5045831;28;20301;-60
2022/06/24 08:14:20;;;;;;;0.73;0.68;;;;;;;9.32;100.00;98724.91;5045072;28;20336;-59
2022/06/24 08:16:51;;;;;;;0.60;0.60;;;;;;;9.32;100.00;98720.53;5045507;28;20104;-60
2022/06/24 08:19:21;;;;;;;1.65;0.70;;;;;;;9.38;100.00;98704.66;5045254;28;20084;-60
2022/06/24 08:21:52;;;;;;;3.95;0.80;;;;;;;9.36;100.00;98696.06;5041644;28;20374;-59
2022/06/24 08:24:22;;;;;;;2.05;0.70;;;;;;;9.28;99.94;98672.00;5043350;28;20058;-60
2022/06/24 08:26:55;;;;;;;0.68;0.68;;;;;;;9.17;100.00;98638.53;5045629;28;20061;-60
2022/06/24 08:29:25;;;;;;;1.73;0.70;;;;;;;9.35;100.00;98683.91;5045527;28;20061;-60
2022/06/24 08:31:56;;;;;;;0.75;0.65;;;;;;;9.21;100.00;98641.84;5045489;28;20049;-60
2022/06/24 08:34:27;;;;;;;1.92;0.70;;;;;;;9.38;100.00;98654.28;5045796;28;20053;-60
2022/06/24 08:36:58;;;;;;;0.70;0.70;;;;;;;9.37;100.00;98656.03;5045413;28;20102;-60
2022/06/24 08:39:28;;;;;;;0.75;0.60;;;;;;;9.39;100.00;98654.22;5045394;28;20053;-60
2022/06/24 08:42:02;;;;;;;0.82;0.50;;;;;;;9.36;99.98;98637.84;5045136;28;20080;-60
2022/06/24 08:44:32;;;;;;;0.77;0.60;;;;;;;9.36;100.00;98649.13;5045037;28;20057;-60
2022/06/24 08:47:03;;;;;;;0.70;0.70;;;;;;;9.37;100.00;98629.97;5045065;28;20054;-60
2022/06/24 08:49:35;;;;;;;0.50;0.50;;;;;;;9.41;100.00;98636.78;5045250;28;20069;-61
2022/06/24 08:52:10;;;;;;;0.75;0.70;;;;;;;9.18;100.00;98580.28;5044709;28;20053;-60
2022/06/24 08:54:44;;;;;;;1.25;1.00;;;;;;;9.47;100.00;98620.91;5044963;28;20060;-60
2022/06/24 08:57:16;;;;;;;3.97;1.00;;;;;;;9.50;100.00;98612.94;5041942;28;20053;-61
2022/06/24 08:59:47;;;;;;;7.25;1.17;;;;;;;9.41;99.91;98589.84;5043447;28;20328;-60
2022/06/24 09:02:18;;;;;;;2.90;1.23;;;;;;;9.37;99.99;98572.63;5044554;28;20115;-60
2022/06/24 09:04:48;;;;;;;3.33;0.77;;;;;;;9.36;100.00;98565.72;5044631;28;20049;-61
2022/06/24 09:07:25;;;;;;;1.73;0.90;;;;;;;9.35;100.00;98569.22;5044621;28;20053;-60
2022/06/24 09:10:03;;;;;;;4.28;0.70;;;;;;;9.31;99.95;98572.00;5044834;28;20283;-61
2022/06/24 09:12:39;;;;;;;0.45;0.45;;;;;;;9.32;100.00;98569.34;5044713;28;20095;-61
2022/06/24 09:15:12;;;;;;;0.50;0.50;;;;;;;9.38;100.00;98582.13;5044329;28;20107;-60
2022/06/24 09:17:44;;;;;;;0.75;0.50;;;;;;;9.37;100.00;98588.25;5043381;28;20148;-59
2022/06/24 09:20:16;;;;;;;0.57;0.50;;;;;;;9.33;100.00;98586.66;5042830;28;20236;-60
2022/06/24 09:23:07;;;;;;;0.50;0.50;;;;;;;9.30;100.00;98586.78;5043451;28;20104;-60
2022/06/24 09:25:45;;;;;;;2.72;0.60;;;;;;;9.30;100.00;98578.97;5041752;28;20084;-60
2022/06/24 09:28:24;;;;;;;1.70;0.50;;;;;;;9.26;100.00;98580.00;5037385;28;20057;-60
2022/06/24 09:31:02;;;;;;;1.45;0.50;;;;;;;9.22;100.00;98583.63;5038133;28;20053;-60
2022/06/24 09:33:38;;;;;;;0.60;0.60;;;;;;;9.24;100.00;98584.44;5037687;28;20061;-62
2022/06/24 09:36:10;;;;;;;1.13;0.50;;;;;;;9.25;100.00;98578.31;5037777;28;20088;-61
2022/06/24 09:38:55;;;;;;;1.88;0.50;;;;;;;9.19;100.00;98552.50;5037268;28;20254;-61
2022/06/24 09:41:26;;;;;;;0.70;0.50;;;;;;;9.22;100.00;98562.78;5036002;28;20287;-60
2022/06/24 09:44:01;;;;;;;0.60;0.60;;;;;;;9.15;100.00;98551.75;5037289;28;20092;-61
2022/06/24 09:46:31;;;;;;;0.57;0.57;;;;;;;9.15;100.00;98549.13;5037744;28;20111;-60
2022/06/24 09:49:06;;;;;;;2.17;0.70;;;;;;;9.14;100.00;98557.88;5037818;28;20213;-60
2022/06/24 09:51:39;;;;;;;0.60;0.60;;;;;;;8.92;100.00;98534.38;5037696;28;20057;-62
2022/06/24 09:54:09;;;;;;;0.65;0.65;;;;;;;9.13;100.00;98563.13;5037690;28;20049;-61
2022/06/24 09:56:40;;;;;;;0.70;0.70;;;;;;;9.12;100.00;98548.41;5037745;28;20387;-60
2022/06/24 10:02:04;;;;;;;1.40;0.60;;;;;;;9.17;100.00;98528.25;5037326;28;20132;-60
2022/06/24 10:04:36;;;;;;;1.60;0.82;;;;;;;9.18;100.00;98509.06;5037377;28;20061;-59
2022/06/24 10:07:08;;;;;;;1.50;0.70;;;;;;;9.19;100.00;98495.16;5037452;28;20049;-59
2022/06/24 10:09:39;;;;;;;1.00;0.90;;;;;;;9.20;100.00;98496.84;5037350;28;20053;-59
2022/06/24 10:12:11;;;;;;;1.88;0.80;;;;;;;9.13;100.00;98490.16;5035003;28;20057;-58
2022/06/24 10:14:43;;;;;;;0.63;0.63;;;;;;;9.20;100.00;98486.41;5041322;28;20371;-59
2022/06/24 10:17:16;;;;;;;1.25;0.70;;;;;;;9.21;100.00;98488.09;5041268;28;20065;-59
2022/06/24 10:19:48;;;;;;;3.08;0.70;;;;;;;9.23;100.00;98460.22;5042226;28;20115;-59
2022/06/24 10:22:40;;;;;;;2.03;0.70;;;;;;;9.20;100.00;98460.34;5041544;28;20061;-59
2022/06/24 10:25:10;;;;;;;2.47;0.82;;;;;;;9.24;100.00;98472.38;5041299;28;20053;-59
2022/06/24 10:28:07;;;;;;;1.30;0.90;;;;;;;9.23;100.00;98465.44;5040681;28;20248;-59
2022/06/24 10:30:54;;;;;;;;;;;;;;;9.26;100.00;98460.97;5043349;28;20072;-59
2022/06/24 10:33:28;;;;;;;1.00;0.70;;;;;;;9.29;100.00;98444.38;5042321;28;20370;-60
2022/06/24 10:36:04;;;;;;;1.25;0.82;;;;;;;9.23;100.00;98442.84;5043138;28;20275;-60
2022/06/24 10:38:39;;;;;;;1.77;0.70;;;;;;;9.19;100.00;98432.63;5042910;28;20084;-63
2022/06/24 10:41:12;;;;;;;2.25;0.68;;;;;;;9.24;100.00;98447.16;5043025;28;20061;-60
2022/06/24 10:43:43;;;;;;;1.05;0.68;;;;;;;9.25;100.00;98464.47;5042967;28;20060;-59
2022/06/24 10:46:22;;;;;;;0.90;0.70;;;;;;;9.10;100.00;98438.19;5042928;28;20136;-60
2022/06/24 10:49:00;;;;;;;0.80;0.60;;;;;;;9.12;100.00;98446.78;5042478;28;20457;-60
2022/06/24 10:51:34;;;;;;;0.70;0.70;;;;;;;9.25;100.00;98461.03;5041145;28;20060;-60
2022/06/24 10:54:14;;;;;;;0.70;0.50;;;;;;;9.17;100.00;98447.47;5042044;28;20275;-59
2022/06/24 10:56:49;;;;;;;0.73;0.45;;;;;;;8.97;100.00;98423.03;5042746;28;20578;-60
2022/06/24 10:59:23;;;;;;;0.77;0.50;;;;;;;9.21;100.00;98451.63;5041422;28;20711;-61
2022/06/24 11:01:55;;;;;;;1.80;0.50;;;;;;;9.22;100.00;98442.91;5041984;28;20053;-62
2022/06/24 11:04:29;;;;;;;0.70;0.70;;;;;;;9.24;100.00;98441.09;5042510;28;20057;-62
2022/06/24 11:07:10;;;;;;;1.10;0.60;;;;;;;9.27;100.00;98440.97;5043088;28;20132;-62
2022/06/24 11:09:41;;;;;;;0.70;0.60;;;;;;;9.23;100.00;98435.00;5042518;28;20286;-60
2022/06/24 11:12:29;;;;;;;0.60;0.60;;;;;;;9.24;100.00;98441.09;5042702;28;20057;-61
2022/06/24 11:15:01;;;;;;;1.08;0.70;;;;;;;9.23;100.00;98440.22;5042883;28;20057;-62
2022/06/24 11:17:33;;;;;;;0.88;0.88;;;;;;;9.25;100.00;98424.53;5042756;28;20091;-61
2022/06/24 11:20:09;;;;;;;0.98;0.88;;;;;;;9.28;100.00;98424.41;5042086;28;20049;-61
2022/06/24 11:22:44;;;;;;;1.10;1.00;;;;;;;9.30;100.00;98414.78;5042261;28;20057;-62
2022/06/24 11:25:17;;;;;;;2.35;1.20;;;;;;;9.33;100.00;98419.84;5041878;28;20056;-62
2022/06/24 11:27:47;;;;;;;1.48;1.00;;;;;;;9.29;100.00;98418.31;5042416;28;20053;-62
2022/06/24 11:30:18;;;;;;;1.27;0.80;;;;;;;9.30;100.00;98425.19;5041319;28;20744;-62
2022/06/24 11:32:57;;;;;;;1.25;0.90;;;;;;;9.26;100.00;98408.84;5040268;28;20079;-62
2022/06/24 11:35:29;;;;;;;1.10;1.00;;;;;;;9.29;100.00;98402.66;5044250;28;20055;-62
2022/06/24 11:37:59;;;;;;;1.40;1.00;;;;;;;9.08;100.00;98362.69;5046767;28;20116;-62
2022/06/24 11:40:31;;;;;;;3.97;1.40;;;;;;;9.33;100.00;98396.41;5046714;28;20235;-61
2022/06/24 11:43:07;;;;;;;2.10;0.90;;;;;;;9.28;100.00;98377.50;5046623;28;20053;-62
2022/06/24 11:45:39;;;;;;;2.60;1.10;;;;;;;9.31;100.00;98380.00;5046209;28;20339;-62
2022/06/24 11:48:13;;;;;;;2.10;1.20;;;;;;;9.34;100.00;98384.25;5046146;28;20049;-63
2022/06/24 11:50:43;;;;;;;2.58;1.08;;;;;;;9.27;100.00;98368.84;5046109;28;20060;-62
2022/06/24 11:53:14;;;;;;;1.00;0.90;;;;;;;9.34;100.00;98379.88;5045754;28;20061;-63
2022/06/24 11:55:51;;;;;;;1.15;1.00;;;;;;;9.35;100.00;98376.34;5046144;28;20072;-62
2022/06/24 11:58:23;;;;;;;2.95;0.90;;;;;;;9.07;100.00;98330.56;5045487;28;20053;-62
2022/06/24 12:00:55;;;;;;;1.75;1.08;;;;;;;9.38;100.00;98381.41;5044932;28;20108;-63
2022/06/24 12:03:28;;;;;;;1.00;0.90;;;;;;;9.37;100.00;98384.94;5045732;28;20402;-62
2022/06/24 12:05:59;;;;;;;1.13;0.80;;;;;;;9.35;100.00;98381.56;5045039;28;20562;-62
2022/06/24 12:08:30;;;;;;;0.80;0.80;;;;;;;9.33;100.00;98378.16;5045746;28;20124;-62
2022/06/24 12:11:00;;;;;;;1.27;0.90;;;;;;;9.34;100.00;98374.66;5035860;28;20057;-62
2022/06/24 12:13:33;;;;;;;2.55;1.13;;;;;;;9.37;100.00;98364.09;5038081;28;20447;-61